Latest Weather Observations for Kununurra Airport

IDD60801

Issued at 7:01 pm CST Friday 20 January 2017 (issued every 30 minutes, with the page automatically refreshed every 10 minutes)

About weather observations | Map of weather stations | Latest weather observations for NT | Other Formats
Station Details ID: 002056 Name: KUNUNURRA AERO Lat: -15.78 Lon: 128.71 Height: 44.0 m
Data from the previous 72 hours. | See also: Recent months at Kununurra Airport
Date/Time
CST
Temp
°C
App
Temp
°C
Dew
Point
°C
Rel
Hum
%
Delta-T
°C
Wind Press
QNH
hPa
Press
MSL
hPa
Rain since
9am
mm
Dir  Spd
km/h
Gust
km/h
Spd
kts
Gust
kts
20/07:00pm 26.1 30.9 24.1 89 1.4 N 6 11 3 6 1006.6 1006.3 0.0
20/06:30pm 26.2 30.0 24.1 88 1.5 NW 11 17 6 9 1006.2 1005.9 0.0
20/06:00pm 26.6 27.2 24.1 86 1.7 NW 28 41 15 22 1006.4 1006.1 0.0
20/05:30pm 28.2 29.4 23.8 77 3.0 NNW 24 32 13 17 1005.9 1005.6 0.0
20/05:00pm 28.6 29.1 23.9 75 3.3 NNW 28 39 15 21 1005.4 1005.1 0.0
20/04:30pm 29.5 30.1 24.1 72 3.8 NW 28 39 15 21 1005.3 1005.0 0.0
20/04:00pm 31.5 31.3 24.4 66 5.0 NNW 33 41 18 22 1004.9 1004.6 0.0
20/03:30pm 32.7 33.7 26.0 68 4.8 NW 32 41 17 22 1004.9 1004.6 0.0
20/03:15pm 33.4 35.1 23.4 55 6.9 NW 20 30 11 16 1004.7 1004.4 0.0
20/03:00pm 34.1 35.9 23.2 53 7.6 NW 19 26 10 14 1004.8 1004.5 0.0
20/02:35pm 33.5 34.6 22.0 51 7.9 NNW 19 24 10 13 1005.4 1005.1 0.0
20/02:31pm 33.5 34.6 21.3 48 8.3 NNW 17 24 9 13 1005.4 1005.1 0.0
20/02:30pm 33.3 35.2 22.7 53 7.3 NNW 17 24 9 13 1005.4 1005.1 0.0
20/02:00pm 33.0 35.4 23.6 57 6.5 NNW 17 26 9 14 1005.7 1005.4 0.0
20/01:32pm 31.9 35.2 24.5 65 5.2 NNW 15 24 8 13 1006.3 1006.0 0.0
20/01:30pm 32.0 35.1 23.5 60 5.9 NNW 13 22 7 12 1006.3 1006.0 0.0
20/01:00pm 32.3 37.4 25.6 67 4.8 NNE 9 13 5 7 1006.7 1006.4 0.0
20/12:30pm 31.6 36.9 25.0 68 4.7 SE 6 13 3 7 1007.0 1006.7 0.0
20/12:00pm 30.7 35.7 24.8 71 4.1 WSW 7 17 4 9 1007.5 1007.2 0.0
20/11:30am 31.3 35.9 24.2 66 5.0 WSW 7 13 4 7 1007.7 1007.4 0.0
20/11:00am 30.1 34.4 24.9 73 3.7 WNW 11 17 6 9 1008.1 1007.8 0.0
20/10:30am 30.1 34.7 25.4 76 3.3 NNE 11 19 6 10 1008.4 1008.1 1.6
20/10:00am 29.2 33.8 24.7 77 3.1 N 9 13 5 7 1008.6 1008.3 1.6
20/09:30am 29.0 33.5 23.9 74 3.5 N 7 11 4 6 1008.4 1008.1 1.6
20/09:00am 28.8 33.4 24.8 79 2.8 NE 9 15 5 8 1008.3 1008.0 1.6
20/08:30am 28.1 33.2 24.7 82 2.4 ENE 6 9 3 5 1008.3 1008.0 1.6
20/08:00am 27.3 32.4 24.9 87 1.7 E 7 9 4 5 1008.1 1007.8 1.6
20/07:30am 26.0 30.9 24.6 92 1.0 E 7 9 4 5 1008.0 1007.7 1.6
20/07:00am 26.1 30.7 24.7 92 1.0 ESE 9 13 5 7 1007.8 1007.5 1.6
20/06:30am 26.3 31.4 24.9 92 1.0 SE 7 9 4 5 1007.4 1007.1 1.6
20/06:00am 26.3 31.8 25.3 94 0.7 S 6 9 3 5 1006.9 1006.6 1.6
20/05:30am 26.4 33.0 25.2 93 0.8 CALM 0 2 0 1 1006.7 1006.4 1.6
20/05:00am 26.3 31.3 24.5 90 1.2 NE 6 7 3 4 1006.5 1006.2 1.6
20/04:30am 26.2 31.1 24.4 90 1.2 ENE 6 7 3 4 1006.4 1006.1 1.6
20/04:00am 25.9 31.3 24.5 92 1.0 NNE 4 7 2 4 1006.4 1006.1 1.6
20/03:30am 25.9 30.5 24.7 93 0.8 NNE 9 11 5 6 1006.4 1006.1 1.6
20/03:00am 26.1 32.1 24.9 93 0.8 NNE 2 7 1 4 1006.7 1006.4 1.6
20/02:30am 26.3 32.1 25.1 93 0.8 NNE 4 7 2 4 1006.7 1006.4 1.6
20/02:00am 26.6 31.9 25.0 91 1.1 ENE 6 7 3 4 1007.0 1006.7 1.6
20/01:30am 26.6 33.2 25.2 92 1.0 CALM 0 6 0 3 1007.2 1006.9 1.6
20/01:00am 26.6 32.2 25.4 93 0.8 NNW 6 7 3 4 1007.2 1006.9 1.6
20/12:30am 26.9 32.4 25.3 91 1.1 N 6 7 3 4 1007.3 1007.0 1.6
20/12:00am 26.9 33.8 25.7 93 0.8 CALM 0 0 0 0 1007.7 1007.4 1.6
 
Date/Time
CST
Temp
°C
App
Temp
°C
Dew
Point
°C
Rel
Hum
%
Delta-T
°C
Wind Press
QNH
hPa
Press
MSL
hPa
Rain since
9am
mm
Dir  Spd
km/h
Gust
km/h
Spd
kts
Gust
kts
19/11:30pm 27.0 32.9 25.4 91 1.1 ESE 4 7 2 4 1007.8 1007.5 1.6
19/11:00pm 27.0 33.5 25.0 89 1.4 CALM 0 0 0 0 1007.8 1007.5 1.6
19/10:30pm 27.1 33.2 25.1 89 1.4 NE 2 7 1 4 1007.6 1007.3 1.6
19/10:00pm 26.8 33.5 25.4 92 1.0 CALM 0 0 0 0 1007.5 1007.2 1.6
19/09:30pm 27.0 33.6 25.2 90 1.3 CALM 0 0 0 0 1007.2 1006.9 1.6
19/09:00pm 26.9 33.5 25.3 91 1.1 CALM 0 0 0 0 1007.4 1007.1 1.6
19/08:30pm 26.8 32.1 25.2 91 1.1 SW 7 11 4 6 1007.2 1006.9 1.6
19/08:00pm 27.1 32.0 24.7 87 1.7 S 7 9 4 5 1006.5 1006.2 1.6
19/07:30pm 27.1 32.8 24.4 85 1.9 N 2 7 1 4 1006.1 1005.8 1.6
19/07:00pm 26.9 31.1 24.7 88 1.5 N 11 17 6 9 1005.4 1005.1 1.6
19/06:30pm 27.1 29.7 24.6 86 1.7 N 19 28 10 15 1005.0 1004.7 1.6
19/06:00pm 27.6 29.4 24.8 85 2.0 NNE 24 32 13 17 1005.0 1004.7 1.6
19/05:44pm 28.2 31.3 25.4 85 2.0 NNE 19 30 10 16 1005.1 1004.8 1.6
19/05:30pm 28.2 31.6 25.2 84 2.1 NE 17 20 9 11 1004.9 1004.6 1.6
19/05:24pm 28.1 31.4 25.1 84 2.1 NNE 17 32 9 17 1005.0 1004.7 1.0
19/05:00pm 29.9 32.1 24.3 72 3.9 N 20 35 11 19 1004.6 1004.2 0.2
19/04:30pm 33.3 36.6 24.5 60 6.2 NW 15 20 8 11 1004.7 1004.4 0.2
19/04:00pm 32.8 35.8 24.0 60 6.2 NNW 15 20 8 11 1005.1 1004.8 0.2
19/03:30pm 32.9 35.8 23.8 58 6.4 NNW 15 20 8 11 1005.7 1005.4 0.2
19/03:00pm 32.2 35.5 23.2 59 6.2 NW 11 15 6 8 1006.1 1005.8 0.2
19/02:30pm 32.1 36.0 24.9 65 5.1 NNW 13 17 7 9 1006.5 1006.2 0.2
19/02:00pm 31.8 35.0 24.4 65 5.2 WNW 15 22 8 12 1007.1 1006.8 0.2
19/01:30pm 31.6 35.7 25.2 69 4.5 NW 13 17 7 9 1007.5 1007.2 0.2
19/01:00pm 31.3 35.3 24.4 66 4.8 NW 11 22 6 12 1008.0 1007.7 0.2
19/12:30pm 30.7 34.3 24.4 69 4.4 NW 13 20 7 11 1008.4 1008.1 0.2
19/12:00pm 30.4 33.9 24.8 72 3.9 NW 15 19 8 10 1008.9 1008.6 0.2
19/11:30am 29.6 32.8 24.9 76 3.3 NW 17 22 9 12 1009.4 1009.1 0.2
19/11:00am 29.3 33.2 25.5 80 2.7 NW 15 20 8 11 1009.8 1009.5 0.2
19/10:30am 28.8 32.9 25.8 84 2.1 NW 15 19 8 10 1010.3 1010.0 45.6
19/10:00am 28.1 32.5 25.7 87 1.7 NW 13 17 7 9 1010.6 1010.3 45.6
19/09:40am 27.7 32.1 25.1 86 1.8 NW 11 15 6 8 1010.6 1010.3 45.6
19/09:30am 27.5 31.8 24.9 86 1.8 NNW 11 15 6 8 1010.7 1010.4 45.6
19/09:00am 27.2 34.0 25.6 91 1.1 CALM 0 4 0 2 1010.7 1010.4 45.6
19/08:30am 26.1 32.1 24.9 93 0.8 NW 2 7 1 4 1010.4 1010.1 45.6
19/08:00am 25.3 30.2 24.4 95 0.6 NNE 6 9 3 5 1010.1 1009.8 45.6
19/07:40am 25.1 31.0 24.1 94 0.7 CALM 0 0 0 0 1010.0 1009.7 45.6
19/07:39am 25.2 31.2 24.2 94 0.7 CALM 0 0 0 0 1010.0 1009.7 45.6
19/07:30am 25.0 30.9 24.1 95 0.6 CALM 0 0 0 0 1009.9 1009.6 45.6
19/07:24am 24.9 31.0 24.4 97 0.3 CALM 0 0 0 0 1009.9 1009.6 45.6
19/07:00am 24.3 29.0 24.0 98 0.2 NNE 6 7 3 4 1009.6 1009.3 45.6
19/06:30am 24.2 28.7 23.7 97 0.3 N 6 6 3 3 1009.1 1008.8 45.6
19/06:00am 24.3 28.9 23.8 97 0.3 NNE 6 7 3 4 1008.9 1008.6 45.6
19/05:30am 24.4 28.9 23.7 96 0.5 E 6 7 3 4 1008.5 1008.2 45.6
19/05:13am 24.6 30.3 23.7 95 0.6 CALM 0 0 0 0 1008.5 1008.2 45.6
19/05:00am 24.6 30.1 23.4 93 0.8 CALM 0 0 0 0 1008.6 1008.3 45.6
19/04:30am 24.6 30.2 23.6 94 0.7 CALM 0 0 0 0 1008.9 1008.6 45.6
19/04:00am 24.5 30.1 23.6 95 0.6 CALM 0 4 0 2 1009.0 1008.7 45.6
19/03:30am 24.4 28.9 23.7 96 0.5 SE 6 7 3 4 1009.0 1008.7 45.6
19/03:07am 24.5 29.1 23.8 96 0.5 SSE 6 9 3 5 1009.3 1009.0 45.6
19/03:00am 24.4 28.9 23.7 96 0.5 S 6 9 3 5 1009.3 1009.0 45.6
19/02:30am 24.3 29.0 23.4 95 0.6 S 4 7 2 4 1009.6 1009.3 45.6
19/02:00am 24.2 29.6 23.3 95 0.6 CALM 0 0 0 0 1009.7 1009.4 45.6
19/01:30am 24.3 29.9 23.6 96 0.5 CALM 0 0 0 0 1009.9 1009.6 45.6
19/01:00am 24.2 28.6 23.5 96 0.5 ESE 6 7 3 4 1010.0 1009.7 45.6
19/12:30am 24.3 28.3 23.8 97 0.3 ESE 9 11 5 6 1010.3 1010.0 45.4
19/12:00am 24.4 28.2 23.4 94 0.7 E 9 11 5 6 1010.3 1010.0 45.2
 
Date/Time
CST
Temp
°C
App
Temp
°C
Dew
Point
°C
Rel
Hum
%
Delta-T
°C
Wind Press
QNH
hPa
Press
MSL
hPa
Rain since
9am
mm
Dir  Spd
km/h
Gust
km/h
Spd
kts
Gust
kts
18/11:30pm 24.3 29.8 23.4 95 0.6 CALM 0 0 0 0 1010.0 1009.7 44.8
18/11:14pm 24.0 29.3 23.1 95 0.6 CALM 0 0 0 0 1009.9 1009.6 44.6
18/11:00pm 24.0 29.3 23.1 95 0.6 CALM 0 0 0 0 1009.9 1009.6 44.4
18/10:55pm 23.9 29.2 23.0 95 0.6 CALM 0 6 0 3 1010.0 1009.7 44.0
18/10:30pm 23.9 28.3 23.4 97 0.3 NE 6 7 3 4 1010.4 1010.1 43.6
18/10:00pm 23.9 28.2 23.6 98 0.2 NE 7 11 4 6 1010.5 1010.2 42.6
18/09:30pm 23.9 26.3 23.6 98 0.2 NNE 17 20 9 11 1009.9 1009.6 41.6
18/09:19pm 23.9 26.9 23.4 97 0.3 NNE 13 22 7 12 1010.0 1009.7 41.4
18/09:00pm 24.3 26.4 23.8 97 0.3 N 19 24 10 13 1009.7 1009.4 40.6
18/08:51pm 24.8 27.4 23.9 95 0.6 N 17 24 9 13 1009.6 1009.3 36.8
18/08:30pm 25.0 28.9 24.3 96 0.5 NE 11 13 6 7 1009.2 1008.9 35.4
18/08:00pm 25.1 29.4 24.2 95 0.6 NNW 9 15 5 8 1008.0 1007.7 35.0
18/07:30pm 25.0 28.9 24.3 96 0.5 ENE 11 13 6 7 1007.4 1007.1 35.0
18/07:00pm 24.7 30.2 24.0 96 0.5 ESE 2 6 1 3 1007.3 1007.0 35.0
18/06:30pm 24.5 28.3 24.0 97 0.3 ENE 11 13 6 7 1007.1 1006.8 35.0
18/06:26pm 24.5 27.9 24.0 97 0.3 NE 13 15 7 8 1007.3 1007.0 35.0
18/06:14pm 24.6 28.4 24.1 97 0.3 NE 11 17 6 9 1007.4 1007.1 34.8
18/06:00pm 24.7 26.7 24.0 96 0.5 NW 20 35 11 19 1008.0 1007.7 30.8
18/05:47pm 25.6 28.6 24.7 95 0.6 SSW 17 22 9 12 1008.0 1007.7 23.2
18/05:37pm 25.8 29.3 24.9 95 0.6 SW 15 22 8 12 1007.4 1007.1 21.6
18/05:30pm 25.9 30.3 25.0 95 0.6 SW 11 17 6 9 1007.2 1006.9 21.6
18/05:00pm 25.8 27.5 24.0 90 1.2 SSE 22 37 12 20 1006.1 1005.8 20.2
18/04:33pm 27.7 30.4 24.7 84 2.1 W 19 28 10 15 1005.6 1005.3 1.2
18/04:30pm 27.7 31.2 24.9 85 2.0 W 15 26 8 14 1005.7 1005.4 0.4
18/04:00pm 31.5 34.9 25.8 72 4.1 NNW 19 26 10 14 1005.5 1005.2 0.0
18/03:30pm 33.3 36.7 25.8 65 5.4 NNW 19 28 10 15 1005.5 1005.2 0.0
18/03:00pm 32.8 35.7 25.1 64 5.5 NNW 19 26 10 14 1005.7 1005.4 0.0
18/02:30pm 32.0 34.7 24.8 65 5.1 N 19 24 10 13 1006.3 1006.0 0.0
18/02:00pm 32.6 35.6 24.6 62 5.6 NW 17 28 9 15 1006.7 1006.4 0.0
18/01:30pm 32.3 34.7 24.3 62 5.6 NNW 19 28 10 15 1007.2 1006.9 0.0
18/01:00pm 32.4 36.1 25.7 68 4.8 NW 17 24 9 13 1007.4 1007.1 0.0
18/12:30pm 31.3 36.7 25.2 70 4.3 NW 6 9 3 5 1008.0 1007.7 0.0
18/12:00pm 30.1 35.2 25.6 77 3.2 S 9 13 5 7 1008.7 1008.4 0.0
18/11:30am 29.9 33.8 24.8 74 3.6 NNW 13 19 7 10 1009.2 1008.9 0.0
18/11:00am 29.6 35.4 26.0 81 2.6 NNW 7 13 4 7 1009.6 1009.3 0.0
18/10:30am 28.9 33.3 25.7 83 2.3 N 13 17 7 9 1009.6 1009.3 73.2
18/10:23am 28.8 33.9 25.6 83 2.3 N 9 15 5 8 1009.6 1009.3 73.2
18/10:03am 28.0 33.3 25.0 84 2.1 N 6 11 3 6 1009.7 1009.4 73.2
18/10:00am 28.0 33.3 25.0 84 2.1 NNW 6 11 3 6 1009.7 1009.4 73.2
18/09:30am 27.0 32.8 24.6 87 1.7 E 2 7 1 4 1009.6 1009.3 73.2
18/09:14am 26.6 32.6 24.3 87 1.6 CALM 0 6 0 3 1009.5 1009.2 73.2
18/09:00am 26.3 31.2 24.3 89 1.4 SSW 6 7 3 4 1009.4 1009.1 73.2
18/08:34am 25.8 31.8 24.2 91 1.1 CALM 0 7 0 4 1009.4 1009.1 73.2
18/08:30am 26.1 32.0 24.7 92 1.0 SSE 2 7 1 4 1009.4 1009.1 73.2
18/08:00am 24.6 29.2 24.1 97 0.3 S 7 9 4 5 1009.1 1008.8 73.2
18/07:30am 24.3 29.0 24.0 98 0.2 SSE 6 7 3 4 1009.3 1009.0 73.2
18/07:08am 24.1 28.7 23.8 98 0.2 S 6 7 3 4 1009.3 1009.0 73.2
18/07:00am 24.1 28.7 23.8 98 0.2 S 6 7 3 4 1009.3 1009.0 73.2
18/06:53am 24.2 28.9 23.9 98 0.2 S 6 7 3 4 1009.2 1008.9 73.2
18/06:30am 24.1 28.7 23.8 98 0.2 S 6 9 3 5 1009.0 1008.7 73.2
18/06:00am 24.0 29.7 23.7 98 0.2 CALM 0 0 0 0 1008.9 1008.6 73.2
18/05:59am 24.0 29.7 23.7 98 0.2 CALM 0 0 0 0 1008.9 1008.6 73.2
18/05:30am 24.0 28.5 23.7 98 0.2 N 6 9 3 5 1008.5 1008.2 73.2
18/05:27am 24.0 28.3 23.7 98 0.2 N 7 9 4 5 1008.5 1008.2 73.2
18/05:00am 23.9 27.8 23.6 98 0.2 NNE 9 13 5 7 1008.2 1007.9 73.2
18/04:30am 23.7 27.5 23.4 98 0.2 N 9 11 5 6 1008.0 1007.7 73.2
18/04:00am 23.6 27.7 23.3 98 0.2 N 7 9 4 5 1007.9 1007.6 73.2
18/03:30am 23.6 27.0 23.3 98 0.2 NNE 11 15 6 8 1007.8 1007.5 73.2
18/03:28am 23.6 27.3 23.3 98 0.2 NNE 9 13 5 7 1007.9 1007.6 73.2
18/03:00am 23.6 27.3 23.3 98 0.2 NNE 9 11 5 6 1007.9 1007.6 73.0
18/02:30am 23.7 28.4 23.4 98 0.2 N 4 9 2 5 1007.9 1007.6 73.0
18/02:27am 23.8 29.0 23.5 98 0.2 N 2 9 1 5 1008.0 1007.7 73.0
18/02:10am 23.8 28.6 23.5 98 0.2 NNE 4 6 2 3 1008.0 1007.7 73.0
18/02:00am 23.8 29.4 23.5 98 0.2 CALM 0 0 0 0 1008.2 1007.9 73.0
18/01:30am 23.7 28.1 23.4 98 0.2 ESE 6 7 3 4 1008.5 1008.2 73.0
18/01:12am 23.7 28.1 23.5 99 0.1 ESE 6 7 3 4 1008.6 1008.3 73.0
18/01:00am 23.7 29.3 23.5 99 0.1 CALM 0 0 0 0 1008.8 1008.5 73.0
18/12:33am 23.6 27.8 23.4 99 0.1 SSW 7 9 4 5 1009.2 1008.9 73.0
18/12:30am 23.6 27.8 23.4 99 0.1 SSW 7 9 4 5 1009.2 1008.9 73.0
18/12:03am 23.6 27.8 23.4 99 0.1 SSE 7 9 4 5 1009.7 1009.4 72.6
18/12:00am 23.6 27.8 23.4 99 0.1 SSE 7 11 4 6 1009.8 1009.5 72.4
 
Date/Time
CST
Temp
°C
App
Temp
°C
Dew
Point
°C
Rel
Hum
%
Delta-T
°C
Wind Press
QNH
hPa
Press
MSL
hPa
Rain since
9am
mm
Dir  Spd
km/h
Gust
km/h
Spd
kts
Gust
kts
17/11:30pm 23.7 27.9 23.5 99 0.1 SSE 7 9 4 5 1010.3 1010.0 70.6
17/11:00pm 23.5 27.6 23.3 99 0.1 ESE 7 9 4 5 1010.6 1010.3 68.4
17/10:30pm 23.4 27.5 23.2 99 0.1 ENE 7 9 4 5 1010.7 1010.4 66.2
17/10:00pm 23.6 27.0 23.4 99 0.1 WNW 11 15 6 8 1010.2 1009.9 64.4
17/09:30pm 23.6 25.9 23.4 99 0.1 W 17 28 9 15 1009.9 1009.6 62.0
17/09:00pm 23.6 24.5 23.4 99 0.1 WNW 24 37 13 20 1009.4 1009.1 53.6
17/08:58pm 23.6 24.5 23.4 99 0.1 WNW 24 37 13 20 1009.4 1009.1 52.6
17/08:42pm 23.6 22.8 23.4 99 0.1 W 33 59 18 32 1008.9 1008.6 41.2
17/08:36pm 24.0 24.7 23.7 98 0.2 W 26 59 14 32 1008.3 1008.0 34.8

Other Formats:

Comma delimited format used in spreadsheet applications
http://www.bom.gov.au/fwo/IDD60801/IDD60801.94216.axf

JavaScript Object Notation format (JSON) in row-major order
http://www.bom.gov.au/fwo/IDD60801/IDD60801.94216.json